sensor_id;sensor_type;location;lat;lon;timestamp;P1;durP1;ratioP1;P2;durP2;ratioP2
2724;SDS011;1370;52.596;13.112;2022-12-18T00:00:39;41.10;;;19.70;;
2724;SDS011;1370;52.596;13.112;2022-12-18T00:03:08;46.00;;;19.83;;
2724;SDS011;1370;52.596;13.112;2022-12-18T00:05:34;45.87;;;22.10;;
2724;SDS011;1370;52.596;13.112;2022-12-18T00:07:59;72.83;;;26.33;;
2724;SDS011;1370;52.596;13.112;2022-12-18T00:10:24;50.47;;;21.10;;
2724;SDS011;1370;52.596;13.112;2022-12-18T00:12:50;60.53;;;26.03;;
2724;SDS011;1370;52.596;13.112;2022-12-18T00:15:15;59.70;;;24.13;;
2724;SDS011;1370;52.596;13.112;2022-12-18T00:17:40;56.10;;;24.57;;
2724;SDS011;1370;52.596;13.112;2022-12-18T00:20:06;53.53;;;24.57;;
2724;SDS011;1370;52.596;13.112;2022-12-18T00:22:32;58.58;;;24.77;;
2724;SDS011;1370;52.596;13.112;2022-12-18T00:24:57;58.80;;;26.73;;
2724;SDS011;1370;52.596;13.112;2022-12-18T00:27:22;52.53;;;23.57;;
2724;SDS011;1370;52.596;13.112;2022-12-18T00:29:48;61.67;;;24.03;;
2724;SDS011;1370;52.596;13.112;2022-12-18T00:32:13;65.63;;;28.30;;
2724;SDS011;1370;52.596;13.112;2022-12-18T00:34:39;62.33;;;26.30;;
2724;SDS011;1370;52.596;13.112;2022-12-18T00:37:04;55.23;;;24.10;;
2724;SDS011;1370;52.596;13.112;2022-12-18T00:39:29;63.23;;;24.50;;
2724;SDS011;1370;52.596;13.112;2022-12-18T00:41:55;67.80;;;26.73;;
2724;SDS011;1370;52.596;13.112;2022-12-18T00:44:39;72.03;;;25.38;;
2724;SDS011;1370;52.596;13.112;2022-12-18T00:47:04;57.90;;;22.90;;
2724;SDS011;1370;52.596;13.112;2022-12-18T00:49:29;62.77;;;22.83;;
2724;SDS011;1370;52.596;13.112;2022-12-18T00:51:55;55.43;;;24.07;;
2724;SDS011;1370;52.596;13.112;2022-12-18T00:54:20;60.40;;;25.00;;
2724;SDS011;1370;52.596;13.112;2022-12-18T00:56:45;68.93;;;25.00;;
2724;SDS011;1370;52.596;13.112;2022-12-18T00:59:11;61.90;;;26.47;;
2724;SDS011;1370;52.596;13.112;2022-12-18T01:01:36;56.13;;;26.73;;
2724;SDS011;1370;52.596;13.112;2022-12-18T01:04:02;57.80;;;24.73;;
2724;SDS011;1370;52.596;13.112;2022-12-18T01:06:27;58.00;;;25.97;;
2724;SDS011;1370;52.596;13.112;2022-12-18T01:08:53;66.93;;;26.07;;
2724;SDS011;1370;52.596;13.112;2022-12-18T01:11:19;65.97;;;27.20;;
2724;SDS011;1370;52.596;13.112;2022-12-18T01:13:45;64.78;;;26.63;;
2724;SDS011;1370;52.596;13.112;2022-12-18T01:16:11;55.90;;;26.97;;
2724;SDS011;1370;52.596;13.112;2022-12-18T01:18:37;72.90;;;28.25;;
2724;SDS011;1370;52.596;13.112;2022-12-18T01:21:06;60.23;;;27.97;;
2724;SDS011;1370;52.596;13.112;2022-12-18T01:23:35;68.95;;;25.95;;
2724;SDS011;1370;52.596;13.112;2022-12-18T01:26:07;56.50;;;25.13;;
2724;SDS011;1370;52.596;13.112;2022-12-18T01:28:34;58.97;;;25.45;;
2724;SDS011;1370;52.596;13.112;2022-12-18T01:33:55;56.83;;;26.10;;
2724;SDS011;1370;52.596;13.112;2022-12-18T01:38:53;66.35;;;23.48;;
2724;SDS011;1370;52.596;13.112;2022-12-18T01:41:20;57.33;;;25.38;;
2724;SDS011;1370;52.596;13.112;2022-12-18T01:43:54;59.20;;;23.42;;
2724;SDS011;1370;52.596;13.112;2022-12-18T01:46:23;56.20;;;24.95;;
2724;SDS011;1370;52.596;13.112;2022-12-18T01:48:49;54.15;;;21.80;;
2724;SDS011;1370;52.596;13.112;2022-12-18T01:51:16;47.28;;;22.88;;
2724;SDS011;1370;52.596;13.112;2022-12-18T01:53:42;48.00;;;24.83;;
2724;SDS011;1370;52.596;13.112;2022-12-18T01:56:08;60.30;;;24.92;;
2724;SDS011;1370;52.596;13.112;2022-12-18T01:58:43;77.07;;;27.10;;
2724;SDS011;1370;52.596;13.112;2022-12-18T02:01:12;49.22;;;23.08;;
2724;SDS011;1370;52.596;13.112;2022-12-18T02:03:40;55.27;;;23.47;;
2724;SDS011;1370;52.596;13.112;2022-12-18T02:08:49;49.55;;;22.95;;
2724;SDS011;1370;52.596;13.112;2022-12-18T02:11:23;45.03;;;21.83;;
2724;SDS011;1370;52.596;13.112;2022-12-18T02:14:04;46.40;;;24.10;;
2724;SDS011;1370;52.596;13.112;2022-12-18T02:27:04;52.00;;;24.15;;
2724;SDS011;1370;52.596;13.112;2022-12-18T02:30:13;52.55;;;21.63;;
2724;SDS011;1370;52.596;13.112;2022-12-18T02:32:21;62.90;;;21.08;;
2724;SDS011;1370;52.596;13.112;2022-12-18T02:34:51;58.05;;;23.73;;
2724;SDS011;1370;52.596;13.112;2022-12-18T02:37:18;59.83;;;23.00;;
2724;SDS011;1370;52.596;13.112;2022-12-18T02:39:46;57.72;;;24.92;;
2724;SDS011;1370;52.596;13.112;2022-12-18T02:42:12;55.78;;;21.95;;
2724;SDS011;1370;52.596;13.112;2022-12-18T02:44:45;53.40;;;21.83;;
2724;SDS011;1370;52.596;13.112;2022-12-18T02:47:14;56.08;;;26.63;;
2724;SDS011;1370;52.596;13.112;2022-12-18T02:52:18;64.30;;;25.30;;
2724;SDS011;1370;52.596;13.112;2022-12-18T02:54:57;64.40;;;23.15;;
2724;SDS011;1370;52.596;13.112;2022-12-18T03:00:31;48.33;;;23.70;;
2724;SDS011;1370;52.596;13.112;2022-12-18T03:03:03;59.55;;;24.55;;
2724;SDS011;1370;52.596;13.112;2022-12-18T03:05:38;64.78;;;25.95;;
2724;SDS011;1370;52.596;13.112;2022-12-18T03:08:14;71.97;;;28.77;;
2724;SDS011;1370;52.596;13.112;2022-12-18T03:10:45;62.53;;;23.20;;
2724;SDS011;1370;52.596;13.112;2022-12-18T03:13:18;53.95;;;21.67;;
2724;SDS011;1370;52.596;13.112;2022-12-18T03:15:47;69.95;;;27.35;;
2724;SDS011;1370;52.596;13.112;2022-12-18T03:18:16;67.28;;;24.63;;
2724;SDS011;1370;52.596;13.112;2022-12-18T03:20:44;50.95;;;25.15;;
2724;SDS011;1370;52.596;13.112;2022-12-18T03:23:12;55.00;;;21.77;;
2724;SDS011;1370;52.596;13.112;2022-12-18T03:25:41;57.85;;;25.45;;
2724;SDS011;1370;52.596;13.112;2022-12-18T03:28:08;56.13;;;24.55;;
2724;SDS011;1370;52.596;13.112;2022-12-18T03:30:37;61.50;;;23.75;;
2724;SDS011;1370;52.596;13.112;2022-12-18T03:33:17;52.97;;;23.58;;
2724;SDS011;1370;52.596;13.112;2022-12-18T03:35:51;62.42;;;23.30;;
2724;SDS011;1370;52.596;13.112;2022-12-18T03:38:16;67.37;;;23.07;;
2724;SDS011;1370;52.596;13.112;2022-12-18T03:40:48;54.70;;;24.00;;
2724;SDS011;1370;52.596;13.112;2022-12-18T03:43:41;66.10;;;25.15;;
2724;SDS011;1370;52.596;13.112;2022-12-18T03:46:21;66.43;;;24.08;;
2724;SDS011;1370;52.596;13.112;2022-12-18T03:48:52;77.22;;;27.92;;
2724;SDS011;1370;52.596;13.112;2022-12-18T03:51:24;64.60;;;24.33;;
2724;SDS011;1370;52.596;13.112;2022-12-18T03:53:55;50.75;;;22.20;;
2724;SDS011;1370;52.596;13.112;2022-12-18T03:56:23;63.13;;;24.08;;
2724;SDS011;1370;52.596;13.112;2022-12-18T03:58:52;60.45;;;23.85;;
2724;SDS011;1370;52.596;13.112;2022-12-18T04:01:17;57.87;;;23.10;;
2724;SDS011;1370;52.596;13.112;2022-12-18T04:03:46;60.03;;;26.85;;
2724;SDS011;1370;52.596;13.112;2022-12-18T04:06:14;61.45;;;25.13;;
2724;SDS011;1370;52.596;13.112;2022-12-18T04:08:39;58.67;;;26.63;;
2724;SDS011;1370;52.596;13.112;2022-12-18T04:11:05;65.07;;;24.75;;
2724;SDS011;1370;52.596;13.112;2022-12-18T04:13:35;66.40;;;25.67;;
2724;SDS011;1370;52.596;13.112;2022-12-18T04:16:01;71.72;;;25.13;;
2724;SDS011;1370;52.596;13.112;2022-12-18T04:18:27;65.93;;;25.87;;
2724;SDS011;1370;52.596;13.112;2022-12-18T04:20:52;55.43;;;22.57;;
2724;SDS011;1370;52.596;13.112;2022-12-18T04:23:18;62.03;;;26.70;;
2724;SDS011;1370;52.596;13.112;2022-12-18T04:25:43;45.27;;;22.33;;
2724;SDS011;1370;52.596;13.112;2022-12-18T04:28:08;55.23;;;23.37;;
2724;SDS011;1370;52.596;13.112;2022-12-18T04:30:34;65.10;;;26.37;;
2724;SDS011;1370;52.596;13.112;2022-12-18T04:32:59;56.37;;;22.60;;
2724;SDS011;1370;52.596;13.112;2022-12-18T04:35:24;60.77;;;25.83;;
2724;SDS011;1370;52.596;13.112;2022-12-18T04:37:50;73.90;;;27.77;;
2724;SDS011;1370;52.596;13.112;2022-12-18T04:40:15;51.93;;;24.30;;
2724;SDS011;1370;52.596;13.112;2022-12-18T04:42:40;70.70;;;27.40;;
2724;SDS011;1370;52.596;13.112;2022-12-18T04:45:06;51.17;;;23.80;;
2724;SDS011;1370;52.596;13.112;2022-12-18T04:47:32;68.38;;;26.38;;
2724;SDS011;1370;52.596;13.112;2022-12-18T04:49:57;47.43;;;23.37;;
2724;SDS011;1370;52.596;13.112;2022-12-18T04:52:23;53.73;;;24.23;;
2724;SDS011;1370;52.596;13.112;2022-12-18T04:54:48;62.53;;;24.13;;
2724;SDS011;1370;52.596;13.112;2022-12-18T04:57:13;65.10;;;27.70;;
2724;SDS011;1370;52.596;13.112;2022-12-18T04:59:39;65.10;;;25.43;;
2724;SDS011;1370;52.596;13.112;2022-12-18T05:02:04;49.43;;;20.93;;
2724;SDS011;1370;52.596;13.112;2022-12-18T05:04:30;59.87;;;28.37;;
2724;SDS011;1370;52.596;13.112;2022-12-18T05:06:55;59.33;;;26.90;;
2724;SDS011;1370;52.596;13.112;2022-12-18T05:09:20;59.73;;;26.67;;
2724;SDS011;1370;52.596;13.112;2022-12-18T05:11:46;69.60;;;29.53;;
2724;SDS011;1370;52.596;13.112;2022-12-18T05:14:11;68.90;;;28.77;;
2724;SDS011;1370;52.596;13.112;2022-12-18T05:16:37;55.03;;;25.40;;
2724;SDS011;1370;52.596;13.112;2022-12-18T05:19:02;67.63;;;25.90;;
2724;SDS011;1370;52.596;13.112;2022-12-18T05:21:27;70.70;;;28.63;;
2724;SDS011;1370;52.596;13.112;2022-12-18T05:23:53;62.33;;;31.00;;
2724;SDS011;1370;52.596;13.112;2022-12-18T05:26:18;58.60;;;25.80;;
2724;SDS011;1370;52.596;13.112;2022-12-18T05:28:44;57.80;;;30.47;;
2724;SDS011;1370;52.596;13.112;2022-12-18T05:31:10;72.35;;;27.00;;
2724;SDS011;1370;52.596;13.112;2022-12-18T05:33:36;57.90;;;23.83;;
2724;SDS011;1370;52.596;13.112;2022-12-18T05:36:02;54.30;;;24.57;;
2724;SDS011;1370;52.596;13.112;2022-12-18T05:38:29;62.13;;;27.48;;
2724;SDS011;1370;52.596;13.112;2022-12-18T05:40:56;66.82;;;27.23;;
2724;SDS011;1370;52.596;13.112;2022-12-18T05:43:22;58.73;;;24.80;;
2724;SDS011;1370;52.596;13.112;2022-12-18T05:45:48;54.72;;;23.92;;
2724;SDS011;1370;52.596;13.112;2022-12-18T05:48:14;58.07;;;25.40;;
2724;SDS011;1370;52.596;13.112;2022-12-18T05:50:40;58.30;;;26.77;;
2724;SDS011;1370;52.596;13.112;2022-12-18T05:53:06;63.30;;;22.58;;
2724;SDS011;1370;52.596;13.112;2022-12-18T05:55:32;55.50;;;23.83;;
2724;SDS011;1370;52.596;13.112;2022-12-18T05:57:59;44.67;;;21.15;;
2724;SDS011;1370;52.596;13.112;2022-12-18T06:00:24;40.63;;;21.63;;
2724;SDS011;1370;52.596;13.112;2022-12-18T06:02:49;46.20;;;24.43;;
2724;SDS011;1370;52.596;13.112;2022-12-18T06:05:15;57.47;;;26.30;;
2724;SDS011;1370;52.596;13.112;2022-12-18T06:07:40;53.80;;;23.23;;
2724;SDS011;1370;52.596;13.112;2022-12-18T06:10:05;70.93;;;25.20;;
2724;SDS011;1370;52.596;13.112;2022-12-18T06:12:31;58.20;;;24.53;;
2724;SDS011;1370;52.596;13.112;2022-12-18T06:14:58;57.42;;;25.50;;
2724;SDS011;1370;52.596;13.112;2022-12-18T06:17:26;57.63;;;24.37;;
2724;SDS011;1370;52.596;13.112;2022-12-18T06:19:53;59.70;;;24.63;;
2724;SDS011;1370;52.596;13.112;2022-12-18T06:22:19;56.67;;;22.13;;
2724;SDS011;1370;52.596;13.112;2022-12-18T06:24:44;53.83;;;22.70;;
2724;SDS011;1370;52.596;13.112;2022-12-18T06:27:10;52.33;;;23.00;;
2724;SDS011;1370;52.596;13.112;2022-12-18T06:29:35;61.47;;;24.37;;
2724;SDS011;1370;52.596;13.112;2022-12-18T06:32:00;67.03;;;26.57;;
2724;SDS011;1370;52.596;13.112;2022-12-18T06:34:25;51.97;;;25.83;;
2724;SDS011;1370;52.596;13.112;2022-12-18T06:36:51;53.23;;;24.80;;
2724;SDS011;1370;52.596;13.112;2022-12-18T06:39:16;66.20;;;25.57;;
2724;SDS011;1370;52.596;13.112;2022-12-18T06:41:41;68.03;;;30.37;;
2724;SDS011;1370;52.596;13.112;2022-12-18T06:44:07;61.37;;;26.87;;
2724;SDS011;1370;52.596;13.112;2022-12-18T06:46:32;60.70;;;25.43;;
2724;SDS011;1370;52.596;13.112;2022-12-18T06:48:57;67.73;;;23.93;;
2724;SDS011;1370;52.596;13.112;2022-12-18T06:51:23;61.83;;;27.20;;
2724;SDS011;1370;52.596;13.112;2022-12-18T06:53:49;62.22;;;25.27;;
2724;SDS011;1370;52.596;13.112;2022-12-18T06:56:14;60.20;;;25.90;;
2724;SDS011;1370;52.596;13.112;2022-12-18T06:58:40;62.10;;;23.13;;
2724;SDS011;1370;52.596;13.112;2022-12-18T07:01:07;54.00;;;25.40;;
2724;SDS011;1370;52.596;13.112;2022-12-18T07:03:34;54.70;;;21.20;;
2724;SDS011;1370;52.596;13.112;2022-12-18T07:05:59;49.23;;;23.63;;
2724;SDS011;1370;52.596;13.112;2022-12-18T07:08:24;60.13;;;24.43;;
2724;SDS011;1370;52.596;13.112;2022-12-18T07:10:50;57.20;;;24.07;;
2724;SDS011;1370;52.596;13.112;2022-12-18T07:13:15;42.13;;;24.83;;
2724;SDS011;1370;52.596;13.112;2022-12-18T07:15:41;49.57;;;22.23;;
2724;SDS011;1370;52.596;13.112;2022-12-18T07:18:06;54.57;;;24.43;;
2724;SDS011;1370;52.596;13.112;2022-12-18T07:20:32;54.97;;;23.97;;
2724;SDS011;1370;52.596;13.112;2022-12-18T07:22:57;57.33;;;27.60;;
2724;SDS011;1370;52.596;13.112;2022-12-18T07:25:22;60.97;;;26.63;;
2724;SDS011;1370;52.596;13.112;2022-12-18T07:27:47;69.67;;;30.23;;
2724;SDS011;1370;52.596;13.112;2022-12-18T07:30:13;63.93;;;27.03;;
2724;SDS011;1370;52.596;13.112;2022-12-18T07:32:38;48.43;;;23.00;;
2724;SDS011;1370;52.596;13.112;2022-12-18T07:35:03;54.37;;;26.93;;
2724;SDS011;1370;52.596;13.112;2022-12-18T07:37:29;46.73;;;22.30;;
2724;SDS011;1370;52.596;13.112;2022-12-18T07:39:54;47.43;;;22.87;;
2724;SDS011;1370;52.596;13.112;2022-12-18T07:42:19;46.30;;;21.77;;
2724;SDS011;1370;52.596;13.112;2022-12-18T07:45:00;40.63;;;21.83;;
2724;SDS011;1370;52.596;13.112;2022-12-18T07:47:26;47.40;;;21.27;;
2724;SDS011;1370;52.596;13.112;2022-12-18T07:49:52;40.97;;;21.73;;
2724;SDS011;1370;52.596;13.112;2022-12-18T07:52:17;51.90;;;20.10;;
2724;SDS011;1370;52.596;13.112;2022-12-18T07:54:43;48.20;;;20.23;;
2724;SDS011;1370;52.596;13.112;2022-12-18T07:57:08;58.90;;;22.93;;
2724;SDS011;1370;52.596;13.112;2022-12-18T07:59:33;44.03;;;21.50;;
2724;SDS011;1370;52.596;13.112;2022-12-18T08:01:59;53.03;;;22.17;;
2724;SDS011;1370;52.596;13.112;2022-12-18T08:04:24;60.80;;;23.17;;
2724;SDS011;1370;52.596;13.112;2022-12-18T08:06:50;51.73;;;21.90;;
2724;SDS011;1370;52.596;13.112;2022-12-18T08:09:15;49.37;;;21.73;;
2724;SDS011;1370;52.596;13.112;2022-12-18T08:11:40;49.10;;;21.17;;
2724;SDS011;1370;52.596;13.112;2022-12-18T08:14:06;49.73;;;19.97;;
2724;SDS011;1370;52.596;13.112;2022-12-18T08:16:31;42.50;;;22.00;;
2724;SDS011;1370;52.596;13.112;2022-12-18T08:18:56;47.07;;;21.60;;
2724;SDS011;1370;52.596;13.112;2022-12-18T08:21:23;55.43;;;22.77;;
2724;SDS011;1370;52.596;13.112;2022-12-18T08:23:51;49.00;;;21.38;;
2724;SDS011;1370;52.596;13.112;2022-12-18T08:26:17;50.38;;;23.45;;
2724;SDS011;1370;52.596;13.112;2022-12-18T08:28:43;43.60;;;22.80;;
2724;SDS011;1370;52.596;13.112;2022-12-18T08:31:08;47.90;;;21.77;;
2724;SDS011;1370;52.596;13.112;2022-12-18T08:33:34;60.90;;;24.60;;
2724;SDS011;1370;52.596;13.112;2022-12-18T08:36:01;60.20;;;25.35;;
2724;SDS011;1370;52.596;13.112;2022-12-18T08:38:47;73.30;;;24.67;;
2724;SDS011;1370;52.596;13.112;2022-12-18T08:41:13;65.70;;;27.70;;
2724;SDS011;1370;52.596;13.112;2022-12-18T08:43:39;65.57;;;25.88;;
2724;SDS011;1370;52.596;13.112;2022-12-18T08:46:24;69.85;;;26.63;;
2724;SDS011;1370;52.596;13.112;2022-12-18T08:48:50;71.32;;;28.30;;
2724;SDS011;1370;52.596;13.112;2022-12-18T08:51:16;60.92;;;27.88;;
2724;SDS011;1370;52.596;13.112;2022-12-18T08:53:42;66.33;;;29.00;;
2724;SDS011;1370;52.596;13.112;2022-12-18T08:56:07;81.40;;;27.60;;
2724;SDS011;1370;52.596;13.112;2022-12-18T08:58:32;78.40;;;27.53;;
2724;SDS011;1370;52.596;13.112;2022-12-18T09:01:01;85.03;;;32.53;;
2724;SDS011;1370;52.596;13.112;2022-12-18T09:03:27;69.75;;;32.25;;
2724;SDS011;1370;52.596;13.112;2022-12-18T09:05:53;75.97;;;30.50;;
2724;SDS011;1370;52.596;13.112;2022-12-18T09:08:18;100.33;;;31.47;;
2724;SDS011;1370;52.596;13.112;2022-12-18T09:10:44;80.17;;;32.60;;
2724;SDS011;1370;52.596;13.112;2022-12-18T09:13:10;69.95;;;30.45;;
2724;SDS011;1370;52.596;13.112;2022-12-18T09:18:15;68.45;;;29.75;;
2724;SDS011;1370;52.596;13.112;2022-12-18T09:20:41;82.15;;;31.83;;
2724;SDS011;1370;52.596;13.112;2022-12-18T09:23:06;84.23;;;30.83;;
2724;SDS011;1370;52.596;13.112;2022-12-18T09:25:32;91.00;;;34.10;;
2724;SDS011;1370;52.596;13.112;2022-12-18T09:27:59;66.20;;;28.70;;
2724;SDS011;1370;52.596;13.112;2022-12-18T09:30:25;67.70;;;30.15;;
2724;SDS011;1370;52.596;13.112;2022-12-18T09:32:51;76.90;;;31.63;;
2724;SDS011;1370;52.596;13.112;2022-12-18T09:35:16;55.27;;;26.83;;
2724;SDS011;1370;52.596;13.112;2022-12-18T09:37:42;66.10;;;27.83;;
2724;SDS011;1370;52.596;13.112;2022-12-18T09:40:12;61.63;;;27.07;;
2724;SDS011;1370;52.596;13.112;2022-12-18T09:42:39;66.40;;;25.80;;
2724;SDS011;1370;52.596;13.112;2022-12-18T09:45:04;71.67;;;26.60;;
2724;SDS011;1370;52.596;13.112;2022-12-18T09:47:30;59.80;;;26.93;;
2724;SDS011;1370;52.596;13.112;2022-12-18T09:50:04;47.40;;;23.00;;
2724;SDS011;1370;52.596;13.112;2022-12-18T09:52:43;72.70;;;25.13;;
2724;SDS011;1370;52.596;13.112;2022-12-18T09:55:27;55.80;;;24.65;;
2724;SDS011;1370;52.596;13.112;2022-12-18T09:57:56;63.35;;;25.02;;
2724;SDS011;1370;52.596;13.112;2022-12-18T10:00:23;60.00;;;24.70;;
2724;SDS011;1370;52.596;13.112;2022-12-18T10:02:50;56.40;;;25.17;;
2724;SDS011;1370;52.596;13.112;2022-12-18T10:05:20;52.42;;;25.05;;
2724;SDS011;1370;52.596;13.112;2022-12-18T10:07:55;48.80;;;21.38;;
2724;SDS011;1370;52.596;13.112;2022-12-18T10:13:26;48.45;;;24.27;;
2724;SDS011;1370;52.596;13.112;2022-12-18T10:16:00;64.30;;;27.15;;
2724;SDS011;1370;52.596;13.112;2022-12-18T10:18:36;51.33;;;28.30;;
2724;SDS011;1370;52.596;13.112;2022-12-18T10:21:24;50.13;;;31.08;;
2724;SDS011;1370;52.596;13.112;2022-12-18T10:26:48;61.83;;;27.48;;
2724;SDS011;1370;52.596;13.112;2022-12-18T10:29:14;63.80;;;28.30;;
2724;SDS011;1370;52.596;13.112;2022-12-18T10:31:40;57.13;;;25.75;;
2724;SDS011;1370;52.596;13.112;2022-12-18T10:34:09;54.80;;;25.57;;
2724;SDS011;1370;52.596;13.112;2022-12-18T10:36:35;67.32;;;24.65;;
2724;SDS011;1370;52.596;13.112;2022-12-18T10:39:14;71.97;;;27.37;;
2724;SDS011;1370;52.596;13.112;2022-12-18T10:41:59;55.15;;;24.27;;
2724;SDS011;1370;52.596;13.112;2022-12-18T10:44:35;54.75;;;23.70;;
2724;SDS011;1370;52.596;13.112;2022-12-18T10:47:04;62.20;;;25.53;;
2724;SDS011;1370;52.596;13.112;2022-12-18T10:49:32;50.35;;;23.67;;
2724;SDS011;1370;52.596;13.112;2022-12-18T10:52:05;47.42;;;21.98;;
2724;SDS011;1370;52.596;13.112;2022-12-18T10:54:32;47.22;;;22.15;;
2724;SDS011;1370;52.596;13.112;2022-12-18T10:57:28;60.17;;;25.30;;
2724;SDS011;1370;52.596;13.112;2022-12-18T10:59:56;47.00;;;22.65;;
2724;SDS011;1370;52.596;13.112;2022-12-18T11:02:27;59.17;;;28.52;;
2724;SDS011;1370;52.596;13.112;2022-12-18T11:04:59;58.28;;;25.38;;
2724;SDS011;1370;52.596;13.112;2022-12-18T11:07:25;64.57;;;26.17;;
2724;SDS011;1370;52.596;13.112;2022-12-18T11:09:59;61.33;;;25.43;;
2724;SDS011;1370;52.596;13.112;2022-12-18T11:12:27;57.00;;;26.15;;
2724;SDS011;1370;52.596;13.112;2022-12-18T11:14:53;62.27;;;23.80;;
2724;SDS011;1370;52.596;13.112;2022-12-18T11:17:30;63.38;;;26.35;;
2724;SDS011;1370;52.596;13.112;2022-12-18T11:19:57;63.70;;;25.92;;
2724;SDS011;1370;52.596;13.112;2022-12-18T11:22:24;63.78;;;27.20;;
2724;SDS011;1370;52.596;13.112;2022-12-18T11:25:03;65.35;;;23.67;;
2724;SDS011;1370;52.596;13.112;2022-12-18T11:27:31;55.78;;;25.30;;
2724;SDS011;1370;52.596;13.112;2022-12-18T11:30:13;55.50;;;24.60;;
2724;SDS011;1370;52.596;13.112;2022-12-18T11:32:50;52.35;;;21.77;;
2724;SDS011;1370;52.596;13.112;2022-12-18T11:41:33;61.00;;;22.85;;
2724;SDS011;1370;52.596;13.112;2022-12-18T11:43:50;45.30;;;22.88;;
2724;SDS011;1370;52.596;13.112;2022-12-18T11:46:38;50.55;;;23.25;;
2724;SDS011;1370;52.596;13.112;2022-12-18T11:49:22;43.30;;;20.45;;
2724;SDS011;1370;52.596;13.112;2022-12-18T11:51:55;43.38;;;22.42;;
2724;SDS011;1370;52.596;13.112;2022-12-18T11:54:23;53.30;;;29.02;;
2724;SDS011;1370;52.596;13.112;2022-12-18T11:56:50;58.83;;;25.53;;
2724;SDS011;1370;52.596;13.112;2022-12-18T12:07:59;36.35;;;20.25;;
2724;SDS011;1370;52.596;13.112;2022-12-18T12:10:39;41.33;;;19.52;;
2724;SDS011;1370;52.596;13.112;2022-12-18T12:13:15;37.70;;;18.30;;
2724;SDS011;1370;52.596;13.112;2022-12-18T12:16:02;49.78;;;21.25;;
2724;SDS011;1370;52.596;13.112;2022-12-18T12:24:00;53.72;;;20.73;;
2724;SDS011;1370;52.596;13.112;2022-12-18T12:26:35;40.95;;;17.90;;
2724;SDS011;1370;52.596;13.112;2022-12-18T12:34:39;77.13;;;36.70;;
2724;SDS011;1370;52.596;13.112;2022-12-18T12:37:29;68.00;;;33.75;;
2724;SDS011;1370;52.596;13.112;2022-12-18T12:40:00;63.60;;;32.83;;
2724;SDS011;1370;52.596;13.112;2022-12-18T12:42:29;68.40;;;38.42;;
2724;SDS011;1370;52.596;13.112;2022-12-18T12:45:19;63.10;;;31.80;;
2724;SDS011;1370;52.596;13.112;2022-12-18T12:47:48;53.58;;;24.80;;
2724;SDS011;1370;52.596;13.112;2022-12-18T12:50:15;50.80;;;25.25;;
2724;SDS011;1370;52.596;13.112;2022-12-18T12:52:47;43.20;;;23.40;;
2724;SDS011;1370;52.596;13.112;2022-12-18T12:55:17;63.40;;;28.77;;
2724;SDS011;1370;52.596;13.112;2022-12-18T12:57:46;58.42;;;26.13;;
2724;SDS011;1370;52.596;13.112;2022-12-18T13:00:19;61.83;;;27.48;;
2724;SDS011;1370;52.596;13.112;2022-12-18T13:02:56;56.43;;;20.97;;
2724;SDS011;1370;52.596;13.112;2022-12-18T13:05:38;56.13;;;23.38;;
2724;SDS011;1370;52.596;13.112;2022-12-18T13:08:06;53.83;;;26.85;;
2724;SDS011;1370;52.596;13.112;2022-12-18T13:10:40;46.60;;;22.20;;
2724;SDS011;1370;52.596;13.112;2022-12-18T13:13:07;49.55;;;23.55;;
2724;SDS011;1370;52.596;13.112;2022-12-18T13:15:34;43.58;;;23.95;;
2724;SDS011;1370;52.596;13.112;2022-12-18T13:18:04;41.42;;;21.73;;
2724;SDS011;1370;52.596;13.112;2022-12-18T13:20:33;43.53;;;23.70;;
2724;SDS011;1370;52.596;13.112;2022-12-18T13:23:01;44.55;;;22.85;;
2724;SDS011;1370;52.596;13.112;2022-12-18T13:28:08;48.33;;;22.60;;
2724;SDS011;1370;52.596;13.112;2022-12-18T13:33:37;61.70;;;27.80;;
2724;SDS011;1370;52.596;13.112;2022-12-18T13:36:13;53.88;;;23.48;;
2724;SDS011;1370;52.596;13.112;2022-12-18T13:38:47;45.22;;;23.70;;
2724;SDS011;1370;52.596;13.112;2022-12-18T13:41:41;50.05;;;23.88;;
2724;SDS011;1370;52.596;13.112;2022-12-18T13:44:11;61.30;;;28.63;;
2724;SDS011;1370;52.596;13.112;2022-12-18T13:46:43;57.97;;;26.50;;
2724;SDS011;1370;52.596;13.112;2022-12-18T13:51:39;53.80;;;27.67;;
2724;SDS011;1370;52.596;13.112;2022-12-18T13:54:14;54.05;;;24.33;;
2724;SDS011;1370;52.596;13.112;2022-12-18T13:56:43;68.00;;;27.65;;
2724;SDS011;1370;52.596;13.112;2022-12-18T14:02:17;50.95;;;25.77;;
2724;SDS011;1370;52.596;13.112;2022-12-18T14:04:39;33.10;;;18.48;;
2724;SDS011;1370;52.596;13.112;2022-12-18T14:07:06;44.40;;;21.63;;
2724;SDS011;1370;52.596;13.112;2022-12-18T14:09:35;29.95;;;17.58;;
2724;SDS011;1370;52.596;13.112;2022-12-18T14:12:02;37.05;;;18.88;;
2724;SDS011;1370;52.596;13.112;2022-12-18T14:14:47;43.10;;;19.08;;
2724;SDS011;1370;52.596;13.112;2022-12-18T14:17:13;39.20;;;21.48;;
2724;SDS011;1370;52.596;13.112;2022-12-18T14:19:43;38.63;;;20.48;;
2724;SDS011;1370;52.596;13.112;2022-12-18T14:22:13;41.80;;;21.75;;
2724;SDS011;1370;52.596;13.112;2022-12-18T14:24:40;34.72;;;21.55;;
2724;SDS011;1370;52.596;13.112;2022-12-18T14:27:13;43.10;;;21.10;;
2724;SDS011;1370;52.596;13.112;2022-12-18T14:29:45;48.47;;;21.58;;
2724;SDS011;1370;52.596;13.112;2022-12-18T14:32:12;36.97;;;20.07;;
2724;SDS011;1370;52.596;13.112;2022-12-18T14:34:48;42.58;;;20.65;;
2724;SDS011;1370;52.596;13.112;2022-12-18T14:37:16;44.72;;;20.45;;
2724;SDS011;1370;52.596;13.112;2022-12-18T14:39:56;33.83;;;21.13;;
2724;SDS011;1370;52.596;13.112;2022-12-18T14:42:23;33.65;;;19.02;;
2724;SDS011;1370;52.596;13.112;2022-12-18T14:44:52;40.10;;;21.38;;
2724;SDS011;1370;52.596;13.112;2022-12-18T14:47:56;43.30;;;22.02;;
2724;SDS011;1370;52.596;13.112;2022-12-18T14:50:21;44.60;;;20.90;;
2724;SDS011;1370;52.596;13.112;2022-12-18T14:52:47;38.13;;;21.80;;
2724;SDS011;1370;52.596;13.112;2022-12-18T14:55:19;44.50;;;21.37;;
2724;SDS011;1370;52.596;13.112;2022-12-18T14:57:45;46.20;;;23.67;;
2724;SDS011;1370;52.596;13.112;2022-12-18T15:00:16;44.33;;;23.50;;
2724;SDS011;1370;52.596;13.112;2022-12-18T15:02:43;42.20;;;24.88;;
2724;SDS011;1370;52.596;13.112;2022-12-18T15:10:46;59.20;;;25.30;;
2724;SDS011;1370;52.596;13.112;2022-12-18T15:20:56;67.28;;;30.15;;
2724;SDS011;1370;52.596;13.112;2022-12-18T15:23:24;60.17;;;28.08;;
2724;SDS011;1370;52.596;13.112;2022-12-18T15:25:56;61.17;;;29.55;;
2724;SDS011;1370;52.596;13.112;2022-12-18T15:28:24;53.45;;;26.90;;
2724;SDS011;1370;52.596;13.112;2022-12-18T15:30:58;66.45;;;30.58;;
2724;SDS011;1370;52.596;13.112;2022-12-18T15:33:26;77.22;;;31.95;;
2724;SDS011;1370;52.596;13.112;2022-12-18T15:35:58;74.00;;;32.88;;
2724;SDS011;1370;52.596;13.112;2022-12-18T15:38:27;62.95;;;33.60;;
2724;SDS011;1370;52.596;13.112;2022-12-18T15:40:53;65.73;;;32.53;;
2724;SDS011;1370;52.596;13.112;2022-12-18T15:43:20;72.80;;;30.98;;
2724;SDS011;1370;52.596;13.112;2022-12-18T15:48:27;70.93;;;30.48;;
2724;SDS011;1370;52.596;13.112;2022-12-18T15:50:53;66.90;;;29.90;;
2724;SDS011;1370;52.596;13.112;2022-12-18T15:53:22;74.65;;;31.85;;
2724;SDS011;1370;52.596;13.112;2022-12-18T15:55:48;49.88;;;28.40;;
2724;SDS011;1370;52.596;13.112;2022-12-18T15:58:32;51.30;;;26.70;;
2724;SDS011;1370;52.596;13.112;2022-12-18T16:00:58;55.23;;;28.10;;
2724;SDS011;1370;52.596;13.112;2022-12-18T16:03:24;42.90;;;24.77;;
2724;SDS011;1370;52.596;13.112;2022-12-18T16:05:49;54.63;;;26.27;;
2724;SDS011;1370;52.596;13.112;2022-12-18T16:08:14;43.67;;;23.67;;